sensor_id;sensor_type;location;lat;lon;timestamp;temperature;humidity
44190;DHT22;29856;52.144;5.430;2022-09-21T00:00:47;12.50;99.90
44190;DHT22;29856;52.144;5.430;2022-09-21T00:03:14;12.30;99.90
44190;DHT22;29856;52.144;5.430;2022-09-21T00:05:40;12.10;99.90
44190;DHT22;29856;52.144;5.430;2022-09-21T00:08:07;12.00;99.90
44190;DHT22;29856;52.144;5.430;2022-09-21T00:10:33;12.10;99.90
44190;DHT22;29856;52.144;5.430;2022-09-21T00:12:59;12.20;99.90
44190;DHT22;29856;52.144;5.430;2022-09-21T00:15:25;12.20;99.90
44190;DHT22;29856;52.144;5.430;2022-09-21T00:17:54;12.20;99.90
44190;DHT22;29856;52.144;5.430;2022-09-21T00:20:20;12.20;99.90
44190;DHT22;29856;52.144;5.430;2022-09-21T00:22:47;12.10;99.90
44190;DHT22;29856;52.144;5.430;2022-09-21T00:25:13;12.10;99.90
44190;DHT22;29856;52.144;5.430;2022-09-21T00:27:39;12.20;99.90
44190;DHT22;29856;52.144;5.430;2022-09-21T00:30:06;12.10;99.90
44190;DHT22;29856;52.144;5.430;2022-09-21T00:32:34;12.10;99.90
44190;DHT22;29856;52.144;5.430;2022-09-21T00:35:00;12.20;99.90
44190;DHT22;29856;52.144;5.430;2022-09-21T00:37:26;12.10;99.90
44190;DHT22;29856;52.144;5.430;2022-09-21T00:39:52;12.10;99.90
44190;DHT22;29856;52.144;5.430;2022-09-21T00:42:39;12.10;99.90
44190;DHT22;29856;52.144;5.430;2022-09-21T00:45:05;12.10;99.90
44190;DHT22;29856;52.144;5.430;2022-09-21T00:47:37;12.00;99.90
44190;DHT22;29856;52.144;5.430;2022-09-21T00:50:07;11.60;99.90
44190;DHT22;29856;52.144;5.430;2022-09-21T00:52:35;11.40;99.90
44190;DHT22;29856;52.144;5.430;2022-09-21T00:57:33;11.50;99.90
44190;DHT22;29856;52.144;5.430;2022-09-21T01:00:04;11.60;99.90
44190;DHT22;29856;52.144;5.430;2022-09-21T01:02:31;11.60;99.90
44190;DHT22;29856;52.144;5.430;2022-09-21T01:04:57;11.70;99.90
44190;DHT22;29856;52.144;5.430;2022-09-21T01:07:28;11.70;99.90
44190;DHT22;29856;52.144;5.430;2022-09-21T01:09:58;11.70;99.90
44190;DHT22;29856;52.144;5.430;2022-09-21T01:12:41;11.70;99.90
44190;DHT22;29856;52.144;5.430;2022-09-21T01:15:33;11.50;99.90
44190;DHT22;29856;52.144;5.430;2022-09-21T01:26:53;10.90;99.90
44190;DHT22;29856;52.144;5.430;2022-09-21T01:33:02;11.10;99.90
44190;DHT22;29856;52.144;5.430;2022-09-21T01:35:45;11.00;99.90
44190;DHT22;29856;52.144;5.430;2022-09-21T01:38:20;11.00;99.90
44190;DHT22;29856;52.144;5.430;2022-09-21T01:40:52;11.00;99.90
44190;DHT22;29856;52.144;5.430;2022-09-21T01:43:23;10.80;99.90
44190;DHT22;29856;52.144;5.430;2022-09-21T01:45:52;10.70;99.90
44190;DHT22;29856;52.144;5.430;2022-09-21T01:48:22;10.70;99.90
44190;DHT22;29856;52.144;5.430;2022-09-21T01:50:54;10.80;99.90
44190;DHT22;29856;52.144;5.430;2022-09-21T01:53:33;10.80;99.90
44190;DHT22;29856;52.144;5.430;2022-09-21T01:56:26;10.80;99.90
44190;DHT22;29856;52.144;5.430;2022-09-21T01:59:06;10.90;99.90
44190;DHT22;29856;52.144;5.430;2022-09-21T02:01:37;11.00;99.90
44190;DHT22;29856;52.144;5.430;2022-09-21T02:04:08;11.00;99.90
44190;DHT22;29856;52.144;5.430;2022-09-21T02:06:34;10.90;99.90
44190;DHT22;29856;52.144;5.430;2022-09-21T02:09:00;10.90;99.90
44190;DHT22;29856;52.144;5.430;2022-09-21T02:11:25;10.60;99.90
44190;DHT22;29856;52.144;5.430;2022-09-21T02:13:52;10.60;99.90
44190;DHT22;29856;52.144;5.430;2022-09-21T02:16:34;10.70;99.90
44190;DHT22;29856;52.144;5.430;2022-09-21T02:19:30;10.70;99.90
44190;DHT22;29856;52.144;5.430;2022-09-21T02:24:39;10.50;99.90
44190;DHT22;29856;52.144;5.430;2022-09-21T02:30:13;10.50;99.90
44190;DHT22;29856;52.144;5.430;2022-09-21T02:40:49;10.40;99.90
44190;DHT22;29856;52.144;5.430;2022-09-21T02:43:50;10.50;99.90
44190;DHT22;29856;52.144;5.430;2022-09-21T02:46:29;10.40;99.90
44190;DHT22;29856;52.144;5.430;2022-09-21T02:49:03;10.40;99.90
44190;DHT22;29856;52.144;5.430;2022-09-21T02:51:37;10.30;99.90
44190;DHT22;29856;52.144;5.430;2022-09-21T02:54:07;10.20;99.90
44190;DHT22;29856;52.144;5.430;2022-09-21T02:56:35;10.20;99.90
44190;DHT22;29856;52.144;5.430;2022-09-21T02:59:03;10.30;99.90
44190;DHT22;29856;52.144;5.430;2022-09-21T03:01:30;10.20;99.90
44190;DHT22;29856;52.144;5.430;2022-09-21T03:03:56;10.20;99.90
44190;DHT22;29856;52.144;5.430;2022-09-21T03:06:21;10.20;99.90
44190;DHT22;29856;52.144;5.430;2022-09-21T03:08:47;10.20;99.90
44190;DHT22;29856;52.144;5.430;2022-09-21T03:11:16;10.20;99.90
44190;DHT22;29856;52.144;5.430;2022-09-21T03:13:42;10.20;99.90
44190;DHT22;29856;52.144;5.430;2022-09-21T03:16:07;10.20;99.90
44190;DHT22;29856;52.144;5.430;2022-09-21T03:18:33;10.20;99.90
44190;DHT22;29856;52.144;5.430;2022-09-21T03:20:59;10.00;99.90
44190;DHT22;29856;52.144;5.430;2022-09-21T03:23:24;10.00;99.90
44190;DHT22;29856;52.144;5.430;2022-09-21T03:25:50;10.00;99.90
44190;DHT22;29856;52.144;5.430;2022-09-21T03:28:17;10.00;99.90
44190;DHT22;29856;52.144;5.430;2022-09-21T03:30:42;9.90;99.90
44190;DHT22;29856;52.144;5.430;2022-09-21T03:33:08;9.90;99.90
44190;DHT22;29856;52.144;5.430;2022-09-21T03:35:33;9.90;99.90
44190;DHT22;29856;52.144;5.430;2022-09-21T03:37:59;9.90;99.90
44190;DHT22;29856;52.144;5.430;2022-09-21T03:40:26;9.90;99.90
44190;DHT22;29856;52.144;5.430;2022-09-21T03:42:52;9.80;99.90
44190;DHT22;29856;52.144;5.430;2022-09-21T03:45:18;9.80;99.90
44190;DHT22;29856;52.144;5.430;2022-09-21T03:47:43;9.80;99.90
44190;DHT22;29856;52.144;5.430;2022-09-21T03:50:09;9.90;99.90
44190;DHT22;29856;52.144;5.430;2022-09-21T03:52:35;9.90;99.90
44190;DHT22;29856;52.144;5.430;2022-09-21T03:55:01;9.90;99.90
44190;DHT22;29856;52.144;5.430;2022-09-21T03:57:26;9.80;99.90
44190;DHT22;29856;52.144;5.430;2022-09-21T03:59:52;9.80;99.90
44190;DHT22;29856;52.144;5.430;2022-09-21T04:02:17;9.80;99.90
44190;DHT22;29856;52.144;5.430;2022-09-21T04:04:43;9.80;99.90
44190;DHT22;29856;52.144;5.430;2022-09-21T04:07:08;9.80;99.90
44190;DHT22;29856;52.144;5.430;2022-09-21T04:09:33;9.80;99.90
44190;DHT22;29856;52.144;5.430;2022-09-21T04:11:59;9.80;99.90
44190;DHT22;29856;52.144;5.430;2022-09-21T04:14:24;9.70;99.90
44190;DHT22;29856;52.144;5.430;2022-09-21T04:16:50;9.80;99.90
44190;DHT22;29856;52.144;5.430;2022-09-21T04:19:15;9.80;99.90
44190;DHT22;29856;52.144;5.430;2022-09-21T04:21:41;9.70;99.90
44190;DHT22;29856;52.144;5.430;2022-09-21T04:24:06;9.70;99.90
44190;DHT22;29856;52.144;5.430;2022-09-21T04:26:33;9.70;99.90
44190;DHT22;29856;52.144;5.430;2022-09-21T04:28:59;9.70;99.90
44190;DHT22;29856;52.144;5.430;2022-09-21T04:31:26;9.70;99.90
44190;DHT22;29856;52.144;5.430;2022-09-21T04:33:53;9.70;99.90
44190;DHT22;29856;52.144;5.430;2022-09-21T04:36:20;9.60;99.90
44190;DHT22;29856;52.144;5.430;2022-09-21T04:38:47;9.60;99.90
44190;DHT22;29856;52.144;5.430;2022-09-21T04:41:13;9.60;99.90
44190;DHT22;29856;52.144;5.430;2022-09-21T04:43:46;9.50;99.90
44190;DHT22;29856;52.144;5.430;2022-09-21T04:46:17;9.50;99.90
44190;DHT22;29856;52.144;5.430;2022-09-21T04:48:43;9.50;99.90
44190;DHT22;29856;52.144;5.430;2022-09-21T04:51:09;9.40;99.90
44190;DHT22;29856;52.144;5.430;2022-09-21T04:53:37;9.30;99.90
44190;DHT22;29856;52.144;5.430;2022-09-21T04:56:04;9.40;99.90
44190;DHT22;29856;52.144;5.430;2022-09-21T04:58:30;9.30;99.90
44190;DHT22;29856;52.144;5.430;2022-09-21T05:00:56;9.20;99.90
44190;DHT22;29856;52.144;5.430;2022-09-21T05:03:23;9.00;99.90
44190;DHT22;29856;52.144;5.430;2022-09-21T05:05:49;9.10;99.90
44190;DHT22;29856;52.144;5.430;2022-09-21T05:08:16;9.10;99.90
44190;DHT22;29856;52.144;5.430;2022-09-21T05:10:42;9.10;99.90
44190;DHT22;29856;52.144;5.430;2022-09-21T05:13:09;9.10;99.90
44190;DHT22;29856;52.144;5.430;2022-09-21T05:15:36;9.00;99.90
44190;DHT22;29856;52.144;5.430;2022-09-21T05:18:02;9.00;99.90
44190;DHT22;29856;52.144;5.430;2022-09-21T05:20:27;8.90;99.90
44190;DHT22;29856;52.144;5.430;2022-09-21T05:22:53;8.80;99.90
44190;DHT22;29856;52.144;5.430;2022-09-21T05:25:18;8.90;99.90
44190;DHT22;29856;52.144;5.430;2022-09-21T05:27:44;8.90;99.90
44190;DHT22;29856;52.144;5.430;2022-09-21T05:30:10;8.90;99.90
44190;DHT22;29856;52.144;5.430;2022-09-21T05:32:46;8.90;99.90
44190;DHT22;29856;52.144;5.430;2022-09-21T05:38:11;8.80;99.90
44190;DHT22;29856;52.144;5.430;2022-09-21T05:40:38;8.70;99.90
44190;DHT22;29856;52.144;5.430;2022-09-21T05:43:04;8.60;99.90
44190;DHT22;29856;52.144;5.430;2022-09-21T05:45:30;8.60;99.90
44190;DHT22;29856;52.144;5.430;2022-09-21T05:48:20;8.70;99.90
44190;DHT22;29856;52.144;5.430;2022-09-21T05:53:39;8.80;99.90
44190;DHT22;29856;52.144;5.430;2022-09-21T05:56:34;8.70;99.90
44190;DHT22;29856;52.144;5.430;2022-09-21T06:04:23;8.90;99.90
44190;DHT22;29856;52.144;5.430;2022-09-21T06:06:48;9.00;99.90
44190;DHT22;29856;52.144;5.430;2022-09-21T06:09:13;9.00;99.90
44190;DHT22;29856;52.144;5.430;2022-09-21T06:11:39;9.20;99.90
44190;DHT22;29856;52.144;5.430;2022-09-21T06:14:04;9.30;99.90
44190;DHT22;29856;52.144;5.430;2022-09-21T06:16:40;9.50;99.90
44190;DHT22;29856;52.144;5.430;2022-09-21T06:19:10;9.60;99.90
44190;DHT22;29856;52.144;5.430;2022-09-21T06:21:36;9.70;99.90
44190;DHT22;29856;52.144;5.430;2022-09-21T06:24:01;9.80;99.90
44190;DHT22;29856;52.144;5.430;2022-09-21T06:26:27;9.80;99.90
44190;DHT22;29856;52.144;5.430;2022-09-21T06:28:52;9.90;99.90
44190;DHT22;29856;52.144;5.430;2022-09-21T06:31:19;10.00;99.90
44190;DHT22;29856;52.144;5.430;2022-09-21T06:33:47;10.30;99.90
44190;DHT22;29856;52.144;5.430;2022-09-21T06:36:13;10.30;99.90
44190;DHT22;29856;52.144;5.430;2022-09-21T06:38:39;10.50;99.90
44190;DHT22;29856;52.144;5.430;2022-09-21T06:41:04;10.60;99.90
44190;DHT22;29856;52.144;5.430;2022-09-21T06:43:30;10.60;99.90
44190;DHT22;29856;52.144;5.430;2022-09-21T06:45:58;10.70;99.90
44190;DHT22;29856;52.144;5.430;2022-09-21T06:48:25;10.80;99.90
44190;DHT22;29856;52.144;5.430;2022-09-21T06:50:56;10.80;99.90
44190;DHT22;29856;52.144;5.430;2022-09-21T06:53:21;10.80;99.90
44190;DHT22;29856;52.144;5.430;2022-09-21T06:55:47;10.90;99.90
44190;DHT22;29856;52.144;5.430;2022-09-21T06:58:12;11.00;99.90
44190;DHT22;29856;52.144;5.430;2022-09-21T07:00:38;11.00;99.90
44190;DHT22;29856;52.144;5.430;2022-09-21T07:03:03;11.00;99.90
44190;DHT22;29856;52.144;5.430;2022-09-21T07:05:29;11.20;99.90
44190;DHT22;29856;52.144;5.430;2022-09-21T07:07:57;11.30;99.90
44190;DHT22;29856;52.144;5.430;2022-09-21T07:10:23;11.30;99.90
44190;DHT22;29856;52.144;5.430;2022-09-21T07:12:49;11.40;99.90
44190;DHT22;29856;52.144;5.430;2022-09-21T07:15:14;11.40;99.90
44190;DHT22;29856;52.144;5.430;2022-09-21T07:17:40;11.60;99.90
44190;DHT22;29856;52.144;5.430;2022-09-21T07:20:06;11.70;99.90
44190;DHT22;29856;52.144;5.430;2022-09-21T07:22:32;11.80;99.90
44190;DHT22;29856;52.144;5.430;2022-09-21T07:24:57;11.90;99.90
44190;DHT22;29856;52.144;5.430;2022-09-21T07:27:24;11.90;99.90
44190;DHT22;29856;52.144;5.430;2022-09-21T07:29:50;12.00;99.90
44190;DHT22;29856;52.144;5.430;2022-09-21T07:32:17;12.10;99.90
44190;DHT22;29856;52.144;5.430;2022-09-21T07:34:43;12.10;99.90
44190;DHT22;29856;52.144;5.430;2022-09-21T07:37:09;12.20;99.90
44190;DHT22;29856;52.144;5.430;2022-09-21T07:39:34;12.30;99.90
44190;DHT22;29856;52.144;5.430;2022-09-21T07:42:00;12.40;99.90
44190;DHT22;29856;52.144;5.430;2022-09-21T07:44:26;12.60;99.90
44190;DHT22;29856;52.144;5.430;2022-09-21T07:46:51;12.70;99.90
44190;DHT22;29856;52.144;5.430;2022-09-21T07:49:17;12.80;99.90
44190;DHT22;29856;52.144;5.430;2022-09-21T07:51:42;12.90;99.90
44190;DHT22;29856;52.144;5.430;2022-09-21T07:54:09;13.00;99.90
44190;DHT22;29856;52.144;5.430;2022-09-21T07:56:36;13.10;99.90
44190;DHT22;29856;52.144;5.430;2022-09-21T07:59:02;13.20;99.90
44190;DHT22;29856;52.144;5.430;2022-09-21T08:01:28;13.30;99.90
44190;DHT22;29856;52.144;5.430;2022-09-21T08:03:55;13.40;99.90
44190;DHT22;29856;52.144;5.430;2022-09-21T08:06:23;13.50;99.90
44190;DHT22;29856;52.144;5.430;2022-09-21T08:08:48;13.70;99.90
44190;DHT22;29856;52.144;5.430;2022-09-21T08:11:16;13.80;99.90
44190;DHT22;29856;52.144;5.430;2022-09-21T08:13:42;13.80;99.90
44190;DHT22;29856;52.144;5.430;2022-09-21T08:16:08;13.90;99.90
44190;DHT22;29856;52.144;5.430;2022-09-21T08:18:38;13.90;99.90
44190;DHT22;29856;52.144;5.430;2022-09-21T08:21:04;14.00;99.90
44190;DHT22;29856;52.144;5.430;2022-09-21T08:23:30;14.10;99.90
44190;DHT22;29856;52.144;5.430;2022-09-21T08:25:59;14.20;99.90
44190;DHT22;29856;52.144;5.430;2022-09-21T08:28:25;14.30;99.90
44190;DHT22;29856;52.144;5.430;2022-09-21T08:30:51;14.40;99.90
44190;DHT22;29856;52.144;5.430;2022-09-21T08:33:16;14.40;99.90
44190;DHT22;29856;52.144;5.430;2022-09-21T08:35:42;14.50;99.90
44190;DHT22;29856;52.144;5.430;2022-09-21T08:38:07;14.60;99.90
44190;DHT22;29856;52.144;5.430;2022-09-21T08:40:33;14.70;99.90
44190;DHT22;29856;52.144;5.430;2022-09-21T08:43:03;14.80;99.90
44190;DHT22;29856;52.144;5.430;2022-09-21T08:45:33;14.90;99.90
44190;DHT22;29856;52.144;5.430;2022-09-21T08:48:08;15.00;99.90
44190;DHT22;29856;52.144;5.430;2022-09-21T08:50:45;15.10;99.90
44190;DHT22;29856;52.144;5.430;2022-09-21T08:53:18;15.20;99.90
44190;DHT22;29856;52.144;5.430;2022-09-21T08:55:45;15.30;99.90
44190;DHT22;29856;52.144;5.430;2022-09-21T08:58:24;15.40;99.90
44190;DHT22;29856;52.144;5.430;2022-09-21T09:01:29;15.40;99.90
44190;DHT22;29856;52.144;5.430;2022-09-21T09:06:26;15.60;99.90
44190;DHT22;29856;52.144;5.430;2022-09-21T09:19:57;16.20;99.90
44190;DHT22;29856;52.144;5.430;2022-09-21T09:23:24;16.20;99.90
44190;DHT22;29856;52.144;5.430;2022-09-21T09:25:23;16.40;99.90
44190;DHT22;29856;52.144;5.430;2022-09-21T09:27:58;16.50;99.90
44190;DHT22;29856;52.144;5.430;2022-09-21T09:30:29;16.60;99.90
44190;DHT22;29856;52.144;5.430;2022-09-21T09:38:18;16.90;99.90
44190;DHT22;29856;52.144;5.430;2022-09-21T09:43:52;17.00;99.90
44190;DHT22;29856;52.144;5.430;2022-09-21T09:52:19;17.00;99.90
44190;DHT22;29856;52.144;5.430;2022-09-21T09:54:45;17.20;99.90
44190;DHT22;29856;52.144;5.430;2022-09-21T09:57:11;17.30;99.90
44190;DHT22;29856;52.144;5.430;2022-09-21T09:59:52;17.40;99.90
44190;DHT22;29856;52.144;5.430;2022-09-21T10:02:23;17.40;99.90
44190;DHT22;29856;52.144;5.430;2022-09-21T10:05:17;17.50;99.90
44190;DHT22;29856;52.144;5.430;2022-09-21T10:07:45;17.50;99.90
44190;DHT22;29856;52.144;5.430;2022-09-21T10:13:18;17.50;99.90
44190;DHT22;29856;52.144;5.430;2022-09-21T10:15:51;17.60;99.90
44190;DHT22;29856;52.144;5.430;2022-09-21T10:18:24;17.70;99.90
44190;DHT22;29856;52.144;5.430;2022-09-21T10:20:59;17.80;99.90
44190;DHT22;29856;52.144;5.430;2022-09-21T10:23:26;17.90;99.90
44190;DHT22;29856;52.144;5.430;2022-09-21T10:25:57;17.90;99.90
44190;DHT22;29856;52.144;5.430;2022-09-21T10:28:24;18.10;99.90
44190;DHT22;29856;52.144;5.430;2022-09-21T10:31:16;18.10;99.90
44190;DHT22;29856;52.144;5.430;2022-09-21T10:33:54;18.10;99.90
44190;DHT22;29856;52.144;5.430;2022-09-21T10:36:36;18.10;99.90
44190;DHT22;29856;52.144;5.430;2022-09-21T10:39:15;18.00;99.90
44190;DHT22;29856;52.144;5.430;2022-09-21T10:41:47;18.20;99.90
44190;DHT22;29856;52.144;5.430;2022-09-21T10:44:16;18.20;99.90
44190;DHT22;29856;52.144;5.430;2022-09-21T10:46:43;18.40;99.90
44190;DHT22;29856;52.144;5.430;2022-09-21T10:49:22;18.40;99.90
44190;DHT22;29856;52.144;5.430;2022-09-21T10:51:50;18.50;99.90
44190;DHT22;29856;52.144;5.430;2022-09-21T10:54:23;18.50;99.90
44190;DHT22;29856;52.144;5.430;2022-09-21T10:56:53;18.10;99.90
44190;DHT22;29856;52.144;5.430;2022-09-21T11:01:45;18.70;99.90
44190;DHT22;29856;52.144;5.430;2022-09-21T11:06:45;18.60;99.90
44190;DHT22;29856;52.144;5.430;2022-09-21T11:09:19;18.80;99.90
44190;DHT22;29856;52.144;5.430;2022-09-21T11:11:54;18.60;99.90
44190;DHT22;29856;52.144;5.430;2022-09-21T11:17:22;18.80;99.90
44190;DHT22;29856;52.144;5.430;2022-09-21T11:19:55;19.00;99.90
44190;DHT22;29856;52.144;5.430;2022-09-21T11:22:42;19.20;99.90
44190;DHT22;29856;52.144;5.430;2022-09-21T11:25:27;19.40;99.90
44190;DHT22;29856;52.144;5.430;2022-09-21T11:28:18;19.50;99.90
44190;DHT22;29856;52.144;5.430;2022-09-21T11:31:25;19.30;99.90
44190;DHT22;29856;52.144;5.430;2022-09-21T11:36:49;19.20;99.90
44190;DHT22;29856;52.144;5.430;2022-09-21T11:39:39;19.10;99.90
44190;DHT22;29856;52.144;5.430;2022-09-21T11:45:02;18.90;99.90
44190;DHT22;29856;52.144;5.430;2022-09-21T11:59:20;19.40;99.00
44190;DHT22;29856;52.144;5.430;2022-09-21T12:04:52;19.30;98.70
44190;DHT22;29856;52.144;5.430;2022-09-21T12:07:38;19.40;99.90
44190;DHT22;29856;52.144;5.430;2022-09-21T12:19:11;19.50;99.30
44190;DHT22;29856;52.144;5.430;2022-09-21T12:21:44;19.30;99.80
44190;DHT22;29856;52.144;5.430;2022-09-21T12:24:15;19.40;99.90
44190;DHT22;29856;52.144;5.430;2022-09-21T12:26:47;19.30;99.90
44190;DHT22;29856;52.144;5.430;2022-09-21T12:34:26;19.20;99.30
44190;DHT22;29856;52.144;5.430;2022-09-21T12:37:12;19.40;99.90
44190;DHT22;29856;52.144;5.430;2022-09-21T12:39:50;19.70;99.50
44190;DHT22;29856;52.144;5.430;2022-09-21T12:45:10;20.00;98.90
44190;DHT22;29856;52.144;5.430;2022-09-21T12:50:36;20.40;99.00
44190;DHT22;29856;52.144;5.430;2022-09-21T12:53:03;20.40;97.90
44190;DHT22;29856;52.144;5.430;2022-09-21T12:55:55;20.50;99.90
44190;DHT22;29856;52.144;5.430;2022-09-21T13:01:23;20.80;97.90
44190;DHT22;29856;52.144;5.430;2022-09-21T13:09:52;21.10;97.60
44190;DHT22;29856;52.144;5.430;2022-09-21T13:12:24;20.90;97.20
44190;DHT22;29856;52.144;5.430;2022-09-21T13:15:00;20.90;98.00
44190;DHT22;29856;52.144;5.430;2022-09-21T13:17:30;20.50;96.60
44190;DHT22;29856;52.144;5.430;2022-09-21T13:20:17;20.60;96.60
44190;DHT22;29856;52.144;5.430;2022-09-21T13:22:44;20.60;98.10
44190;DHT22;29856;52.144;5.430;2022-09-21T13:25:24;20.60;96.70
44190;DHT22;29856;52.144;5.430;2022-09-21T13:40:58;20.40;96.70
44190;DHT22;29856;52.144;5.430;2022-09-21T13:54:49;20.90;97.20
44190;DHT22;29856;52.144;5.430;2022-09-21T13:57:28;21.10;96.80
44190;DHT22;29856;52.144;5.430;2022-09-21T14:02:38;21.00;97.10
44190;DHT22;29856;52.144;5.430;2022-09-21T14:05:25;21.10;97.10
44190;DHT22;29856;52.144;5.430;2022-09-21T14:11:02;20.60;98.00
44190;DHT22;29856;52.144;5.430;2022-09-21T14:24:39;20.20;98.60
44190;DHT22;29856;52.144;5.430;2022-09-21T14:27:19;20.20;99.10
44190;DHT22;29856;52.144;5.430;2022-09-21T14:29:51;20.20;99.70
44190;DHT22;29856;52.144;5.430;2022-09-21T14:32:20;20.10;99.90
44190;DHT22;29856;52.144;5.430;2022-09-21T14:34:47;20.10;99.80
44190;DHT22;29856;52.144;5.430;2022-09-21T14:37:27;20.00;99.50
44190;DHT22;29856;52.144;5.430;2022-09-21T14:39:56;19.90;99.10
44190;DHT22;29856;52.144;5.430;2022-09-21T14:42:24;19.90;99.50
44190;DHT22;29856;52.144;5.430;2022-09-21T14:44:50;19.90;99.60
44190;DHT22;29856;52.144;5.430;2022-09-21T14:47:29;19.90;99.80
44190;DHT22;29856;52.144;5.430;2022-09-21T14:58:37;20.20;99.40
44190;DHT22;29856;52.144;5.430;2022-09-21T15:01:20;20.40;99.90
44190;DHT22;29856;52.144;5.430;2022-09-21T15:06:23;20.60;99.20
44190;DHT22;29856;52.144;5.430;2022-09-21T15:11:42;20.30;98.60
44190;DHT22;29856;52.144;5.430;2022-09-21T15:14:20;20.30;99.20
44190;DHT22;29856;52.144;5.430;2022-09-21T15:16:48;20.20;98.70
44190;DHT22;29856;52.144;5.430;2022-09-21T15:21:50;20.10;98.40
44190;DHT22;29856;52.144;5.430;2022-09-21T15:24:24;19.70;98.70
44190;DHT22;29856;52.144;5.430;2022-09-21T15:26:51;19.60;99.40
44190;DHT22;29856;52.144;5.430;2022-09-21T15:29:26;19.60;99.90
44190;DHT22;29856;52.144;5.430;2022-09-21T15:31:53;19.50;99.90
44190;DHT22;29856;52.144;5.430;2022-09-21T15:34:18;19.50;99.90
44190;DHT22;29856;52.144;5.430;2022-09-21T15:36:45;19.50;99.90
44190;DHT22;29856;52.144;5.430;2022-09-21T15:39:21;19.70;99.90
44190;DHT22;29856;52.144;5.430;2022-09-21T15:41:47;19.70;99.90
44190;DHT22;29856;52.144;5.430;2022-09-21T15:44:27;19.80;99.90
44190;DHT22;29856;52.144;5.430;2022-09-21T15:46:55;19.90;99.90
44190;DHT22;29856;52.144;5.430;2022-09-21T15:49:21;20.10;99.40
44190;DHT22;29856;52.144;5.430;2022-09-21T15:51:54;20.10;99.30
44190;DHT22;29856;52.144;5.430;2022-09-21T15:54:33;20.20;98.70
44190;DHT22;29856;52.144;5.430;2022-09-21T15:57:05;20.20;98.10
44190;DHT22;29856;52.144;5.430;2022-09-21T15:59:34;20.30;98.30
44190;DHT22;29856;52.144;5.430;2022-09-21T16:02:09;20.30;98.30
44190;DHT22;29856;52.144;5.430;2022-09-21T16:04:35;20.40;98.10
44190;DHT22;29856;52.144;5.430;2022-09-21T16:07:06;20.40;98.60
44190;DHT22;29856;52.144;5.430;2022-09-21T16:09:44;20.40;98.90
44190;DHT22;29856;52.144;5.430;2022-09-21T16:14:51;20.40;98.00
44190;DHT22;29856;52.144;5.430;2022-09-21T16:17:25;20.50;98.80
44190;DHT22;29856;52.144;5.430;2022-09-21T16:22:40;20.50;98.70
44190;DHT22;29856;52.144;5.430;2022-09-21T16:25:33;20.30;98.80
44190;DHT22;29856;52.144;5.430;2022-09-21T16:30:48;20.40;98.20
44190;DHT22;29856;52.144;5.430;2022-09-21T16:38:45;20.30;98.20
44190;DHT22;29856;52.144;5.430;2022-09-21T16:41:11;20.30;99.10
44190;DHT22;29856;52.144;5.430;2022-09-21T16:43:37;20.20;99.50
44190;DHT22;29856;52.144;5.430;2022-09-21T16:46:02;20.20;99.90
44190;DHT22;29856;52.144;5.430;2022-09-21T16:48:28;20.20;99.90
44190;DHT22;29856;52.144;5.430;2022-09-21T16:50:53;20.20;99.90
44190;DHT22;29856;52.144;5.430;2022-09-21T16:53:19;20.10;99.90
44190;DHT22;29856;52.144;5.430;2022-09-21T16:55:44;19.90;99.90
44190;DHT22;29856;52.144;5.430;2022-09-21T16:58:10;19.90;99.90
44190;DHT22;29856;52.144;5.430;2022-09-21T17:00:39;19.60;99.90
44190;DHT22;29856;52.144;5.430;2022-09-21T17:03:05;19.50;99.90
44190;DHT22;29856;52.144;5.430;2022-09-21T17:05:30;19.50;99.90
44190;DHT22;29856;52.144;5.430;2022-09-21T17:07:58;19.30;99.90
44190;DHT22;29856;52.144;5.430;2022-09-21T17:10:27;19.10;99.90
44190;DHT22;29856;52.144;5.430;2022-09-21T17:12:55;19.10;99.90
44190;DHT22;29856;52.144;5.430;2022-09-21T17:15:21;19.10;99.90
44190;DHT22;29856;52.144;5.430;2022-09-21T17:17:47;19.10;99.90
44190;DHT22;29856;52.144;5.430;2022-09-21T17:20:19;19.00;99.90
44190;DHT22;29856;52.144;5.430;2022-09-21T17:22:47;18.90;99.90
44190;DHT22;29856;52.144;5.430;2022-09-21T17:25:13;18.80;99.90
44190;DHT22;29856;52.144;5.430;2022-09-21T17:27:38;18.50;99.90
44190;DHT22;29856;52.144;5.430;2022-09-21T17:30:11;18.50;99.90
44190;DHT22;29856;52.144;5.430;2022-09-21T17:32:37;18.50;99.90
44190;DHT22;29856;52.144;5.430;2022-09-21T17:38:00;18.30;99.90
44190;DHT22;29856;52.144;5.430;2022-09-21T17:40:26;18.30;99.90
44190;DHT22;29856;52.144;5.430;2022-09-21T17:42:58;18.10;99.90
44190;DHT22;29856;52.144;5.430;2022-09-21T17:45:36;18.20;99.90
44190;DHT22;29856;52.144;5.430;2022-09-21T17:48:04;18.10;99.90
44190;DHT22;29856;52.144;5.430;2022-09-21T17:50:30;18.00;99.90
44190;DHT22;29856;52.144;5.430;2022-09-21T17:52:55;17.90;99.90
44190;DHT22;29856;52.144;5.430;2022-09-21T17:55:21;17.80;99.90
44190;DHT22;29856;52.144;5.430;2022-09-21T17:59:13;17.90;99.90
44190;DHT22;29856;52.144;5.430;2022-09-21T18:01:06;17.90;99.90
44190;DHT22;29856;52.144;5.430;2022-09-21T18:03:36;17.90;99.90
44190;DHT22;29856;52.144;5.430;2022-09-21T18:06:03;17.70;99.90
44190;DHT22;29856;52.144;5.430;2022-09-21T18:08:30;17.60;99.90
44190;DHT22;29856;52.144;5.430;2022-09-21T18:22:46;17.10;99.90
44190;DHT22;29856;52.144;5.430;2022-09-21T18:25:22;16.90;99.90
44190;DHT22;29856;52.144;5.430;2022-09-21T18:27:51;16.90;99.90
44190;DHT22;29856;52.144;5.430;2022-09-21T18:30:17;16.90;99.90
44190;DHT22;29856;52.144;5.430;2022-09-21T18:32:54;16.70;99.90
44190;DHT22;29856;52.144;5.430;2022-09-21T18:41:03;16.20;99.90
44190;DHT22;29856;52.144;5.430;2022-09-21T18:46:14;16.10;99.90
44190;DHT22;29856;52.144;5.430;2022-09-21T18:49:06;16.20;99.90
44190;DHT22;29856;52.144;5.430;2022-09-21T18:51:45;16.30;99.90
44190;DHT22;29856;52.144;5.430;2022-09-21T18:54:21;16.20;99.90
44190;DHT22;29856;52.144;5.430;2022-09-21T18:56:47;16.10;99.90
44190;DHT22;29856;52.144;5.430;2022-09-21T18:59:14;16.00;99.90
44190;DHT22;29856;52.144;5.430;2022-09-21T19:01:41;15.90;99.90
44190;DHT22;29856;52.144;5.430;2022-09-21T19:04:08;15.90;99.90
44190;DHT22;29856;52.144;5.430;2022-09-21T19:07:39;15.70;99.90
44190;DHT22;29856;52.144;5.430;2022-09-21T19:10:30;15.50;99.90
44190;DHT22;29856;52.144;5.430;2022-09-21T19:16:33;15.40;99.90
44190;DHT22;29856;52.144;5.430;2022-09-21T19:24:56;15.50;99.90
44190;DHT22;29856;52.144;5.430;2022-09-21T19:30:10;15.20;99.90
44190;DHT22;29856;52.144;5.430;2022-09-21T19:32:50;14.90;99.90
44190;DHT22;29856;52.144;5.430;2022-09-21T19:35:23;14.70;99.90
44190;DHT22;29856;52.144;5.430;2022-09-21T19:37:51;14.80;99.90
44190;DHT22;29856;52.144;5.430;2022-09-21T19:40:19;14.80;99.90
44190;DHT22;29856;52.144;5.430;2022-09-21T19:43:11;14.70;99.90
44190;DHT22;29856;52.144;5.430;2022-09-21T19:48:17;14.70;99.90
44190;DHT22;29856;52.144;5.430;2022-09-21T19:53:14;14.80;99.90